sensor_id;sensor_type;location;lat;lon;timestamp;P1;durP1;ratioP1;P2;durP2;ratioP2
7074;SDS011;3578;51.568;6.932;2022-07-25T00:01:15;11.17;;;10.10;;
7074;SDS011;3578;51.568;6.932;2022-07-25T00:03:42;13.20;;;11.37;;
7074;SDS011;3578;51.568;6.932;2022-07-25T00:06:10;10.83;;;9.87;;
7074;SDS011;3578;51.568;6.932;2022-07-25T00:08:37;11.87;;;9.40;;
7074;SDS011;3578;51.568;6.932;2022-07-25T00:11:04;11.80;;;10.63;;
7074;SDS011;3578;51.568;6.932;2022-07-25T00:13:31;12.07;;;10.80;;
7074;SDS011;3578;51.568;6.932;2022-07-25T00:15:58;9.83;;;8.80;;
7074;SDS011;3578;51.568;6.932;2022-07-25T00:18:25;10.90;;;9.90;;
7074;SDS011;3578;51.568;6.932;2022-07-25T00:20:52;11.43;;;10.33;;
7074;SDS011;3578;51.568;6.932;2022-07-25T00:23:21;11.73;;;10.60;;
7074;SDS011;3578;51.568;6.932;2022-07-25T00:25:48;11.50;;;10.40;;
7074;SDS011;3578;51.568;6.932;2022-07-25T00:28:15;16.43;;;11.30;;
7074;SDS011;3578;51.568;6.932;2022-07-25T00:30:42;11.40;;;10.23;;
7074;SDS011;3578;51.568;6.932;2022-07-25T00:33:09;14.70;;;10.70;;
7074;SDS011;3578;51.568;6.932;2022-07-25T00:35:36;12.20;;;11.00;;
7074;SDS011;3578;51.568;6.932;2022-07-25T00:38:03;11.70;;;10.50;;
7074;SDS011;3578;51.568;6.932;2022-07-25T00:40:32;12.00;;;10.23;;
7074;SDS011;3578;51.568;6.932;2022-07-25T00:43:00;11.40;;;10.37;;
7074;SDS011;3578;51.568;6.932;2022-07-25T00:45:27;11.47;;;10.30;;
7074;SDS011;3578;51.568;6.932;2022-07-25T00:47:54;13.07;;;11.07;;
7074;SDS011;3578;51.568;6.932;2022-07-25T00:50:21;11.97;;;10.87;;
7074;SDS011;3578;51.568;6.932;2022-07-25T00:52:48;10.23;;;9.43;;
7074;SDS011;3578;51.568;6.932;2022-07-25T00:55:16;11.73;;;10.53;;
7074;SDS011;3578;51.568;6.932;2022-07-25T00:57:44;10.83;;;9.60;;
7074;SDS011;3578;51.568;6.932;2022-07-25T01:00:12;10.83;;;9.83;;
7074;SDS011;3578;51.568;6.932;2022-07-25T01:02:41;10.83;;;9.73;;
7074;SDS011;3578;51.568;6.932;2022-07-25T01:05:10;11.80;;;10.60;;
7074;SDS011;3578;51.568;6.932;2022-07-25T01:07:37;11.70;;;10.60;;
7074;SDS011;3578;51.568;6.932;2022-07-25T01:10:05;12.20;;;10.80;;
7074;SDS011;3578;51.568;6.932;2022-07-25T01:12:42;12.33;;;11.17;;
7074;SDS011;3578;51.568;6.932;2022-07-25T01:15:13;11.00;;;9.97;;
7074;SDS011;3578;51.568;6.932;2022-07-25T01:17:42;11.77;;;10.67;;
7074;SDS011;3578;51.568;6.932;2022-07-25T01:20:14;14.70;;;10.50;;
7074;SDS011;3578;51.568;6.932;2022-07-25T01:22:43;12.10;;;10.80;;
7074;SDS011;3578;51.568;6.932;2022-07-25T01:25:10;12.50;;;10.23;;
7074;SDS011;3578;51.568;6.932;2022-07-25T01:27:39;13.37;;;11.80;;
7074;SDS011;3578;51.568;6.932;2022-07-25T01:30:07;12.53;;;11.27;;
7074;SDS011;3578;51.568;6.932;2022-07-25T01:32:38;11.60;;;10.50;;
7074;SDS011;3578;51.568;6.932;2022-07-25T01:35:05;12.27;;;11.00;;
7074;SDS011;3578;51.568;6.932;2022-07-25T01:37:35;14.57;;;10.13;;
7074;SDS011;3578;51.568;6.932;2022-07-25T01:40:03;12.53;;;11.27;;
7074;SDS011;3578;51.568;6.932;2022-07-25T01:42:32;13.20;;;11.07;;
7074;SDS011;3578;51.568;6.932;2022-07-25T01:45:00;11.47;;;10.07;;
7074;SDS011;3578;51.568;6.932;2022-07-25T01:47:27;13.83;;;12.23;;
7074;SDS011;3578;51.568;6.932;2022-07-25T01:49:54;12.80;;;11.50;;
7074;SDS011;3578;51.568;6.932;2022-07-25T01:52:22;13.50;;;10.83;;
7074;SDS011;3578;51.568;6.932;2022-07-25T01:54:50;11.30;;;10.30;;
7074;SDS011;3578;51.568;6.932;2022-07-25T01:57:17;12.57;;;11.47;;
7074;SDS011;3578;51.568;6.932;2022-07-25T01:59:44;14.80;;;11.57;;
7074;SDS011;3578;51.568;6.932;2022-07-25T02:02:11;13.50;;;12.10;;
7074;SDS011;3578;51.568;6.932;2022-07-25T02:04:38;13.20;;;11.30;;
7074;SDS011;3578;51.568;6.932;2022-07-25T02:07:05;13.33;;;11.60;;
7074;SDS011;3578;51.568;6.932;2022-07-25T02:09:32;12.53;;;11.20;;
7074;SDS011;3578;51.568;6.932;2022-07-25T02:12:00;12.80;;;10.90;;
7074;SDS011;3578;51.568;6.932;2022-07-25T02:14:27;12.63;;;11.43;;
7074;SDS011;3578;51.568;6.932;2022-07-25T02:16:54;13.10;;;11.80;;
7074;SDS011;3578;51.568;6.932;2022-07-25T02:19:22;15.87;;;11.80;;
7074;SDS011;3578;51.568;6.932;2022-07-25T02:21:49;14.40;;;11.20;;
7074;SDS011;3578;51.568;6.932;2022-07-25T02:24:16;12.73;;;11.33;;
7074;SDS011;3578;51.568;6.932;2022-07-25T02:26:43;12.70;;;11.50;;
7074;SDS011;3578;51.568;6.932;2022-07-25T02:29:11;11.93;;;10.93;;
7074;SDS011;3578;51.568;6.932;2022-07-25T02:31:39;12.40;;;11.33;;
7074;SDS011;3578;51.568;6.932;2022-07-25T02:34:06;12.70;;;11.50;;
7074;SDS011;3578;51.568;6.932;2022-07-25T02:36:33;12.77;;;11.40;;
7074;SDS011;3578;51.568;6.932;2022-07-25T02:39:00;12.00;;;10.90;;
7074;SDS011;3578;51.568;6.932;2022-07-25T02:41:28;12.00;;;10.97;;
7074;SDS011;3578;51.568;6.932;2022-07-25T02:43:55;12.70;;;11.50;;
7074;SDS011;3578;51.568;6.932;2022-07-25T02:46:24;16.70;;;12.60;;
7074;SDS011;3578;51.568;6.932;2022-07-25T02:48:51;11.50;;;10.37;;
7074;SDS011;3578;51.568;6.932;2022-07-25T02:51:18;11.67;;;10.67;;
7074;SDS011;3578;51.568;6.932;2022-07-25T02:53:45;11.50;;;10.40;;
7074;SDS011;3578;51.568;6.932;2022-07-25T02:56:12;11.03;;;9.93;;
7074;SDS011;3578;51.568;6.932;2022-07-25T02:58:39;12.20;;;11.00;;
7074;SDS011;3578;51.568;6.932;2022-07-25T03:01:06;10.90;;;9.90;;
7074;SDS011;3578;51.568;6.932;2022-07-25T03:03:36;13.37;;;10.37;;
7074;SDS011;3578;51.568;6.932;2022-07-25T03:06:03;11.63;;;10.53;;
7074;SDS011;3578;51.568;6.932;2022-07-25T03:08:31;11.00;;;9.90;;
7074;SDS011;3578;51.568;6.932;2022-07-25T03:10:58;11.60;;;10.53;;
7074;SDS011;3578;51.568;6.932;2022-07-25T03:13:25;11.20;;;10.07;;
7074;SDS011;3578;51.568;6.932;2022-07-25T03:15:52;14.93;;;10.50;;
7074;SDS011;3578;51.568;6.932;2022-07-25T03:18:19;12.33;;;11.23;;
7074;SDS011;3578;51.568;6.932;2022-07-25T03:20:48;17.13;;;9.87;;
7074;SDS011;3578;51.568;6.932;2022-07-25T03:23:15;14.30;;;11.33;;
7074;SDS011;3578;51.568;6.932;2022-07-25T03:25:42;12.67;;;11.37;;
7074;SDS011;3578;51.568;6.932;2022-07-25T03:28:09;11.53;;;10.43;;
7074;SDS011;3578;51.568;6.932;2022-07-25T03:30:36;11.10;;;10.00;;
7074;SDS011;3578;51.568;6.932;2022-07-25T03:33:03;11.57;;;10.40;;
7074;SDS011;3578;51.568;6.932;2022-07-25T03:35:30;10.47;;;9.37;;
7074;SDS011;3578;51.568;6.932;2022-07-25T03:37:58;11.27;;;10.07;;
7074;SDS011;3578;51.568;6.932;2022-07-25T03:40:25;16.10;;;11.17;;
7074;SDS011;3578;51.568;6.932;2022-07-25T03:42:52;12.80;;;11.40;;
7074;SDS011;3578;51.568;6.932;2022-07-25T03:45:20;11.80;;;10.60;;
7074;SDS011;3578;51.568;6.932;2022-07-25T03:47:47;11.20;;;10.10;;
7074;SDS011;3578;51.568;6.932;2022-07-25T03:50:15;12.80;;;10.50;;
7074;SDS011;3578;51.568;6.932;2022-07-25T03:52:42;14.53;;;10.00;;
7074;SDS011;3578;51.568;6.932;2022-07-25T03:55:10;11.00;;;9.87;;
7074;SDS011;3578;51.568;6.932;2022-07-25T03:57:37;12.07;;;10.97;;
7074;SDS011;3578;51.568;6.932;2022-07-25T04:00:06;11.97;;;10.80;;
7074;SDS011;3578;51.568;6.932;2022-07-25T04:02:34;11.53;;;10.33;;
7074;SDS011;3578;51.568;6.932;2022-07-25T04:05:02;13.30;;;11.00;;
7074;SDS011;3578;51.568;6.932;2022-07-25T04:07:30;12.70;;;11.13;;
7074;SDS011;3578;51.568;6.932;2022-07-25T04:09:57;11.40;;;10.30;;
7074;SDS011;3578;51.568;6.932;2022-07-25T04:12:26;12.20;;;10.63;;
7074;SDS011;3578;51.568;6.932;2022-07-25T04:14:53;14.83;;;10.70;;
7074;SDS011;3578;51.568;6.932;2022-07-25T04:17:20;12.93;;;10.33;;
7074;SDS011;3578;51.568;6.932;2022-07-25T04:19:48;13.80;;;9.90;;
7074;SDS011;3578;51.568;6.932;2022-07-25T04:22:15;12.30;;;10.70;;
7074;SDS011;3578;51.568;6.932;2022-07-25T04:24:42;15.50;;;9.73;;
7074;SDS011;3578;51.568;6.932;2022-07-25T04:27:09;14.03;;;9.43;;
7074;SDS011;3578;51.568;6.932;2022-07-25T04:29:37;11.10;;;10.07;;
7074;SDS011;3578;51.568;6.932;2022-07-25T04:32:04;10.97;;;9.87;;
7074;SDS011;3578;51.568;6.932;2022-07-25T04:34:32;12.20;;;9.83;;
7074;SDS011;3578;51.568;6.932;2022-07-25T04:36:59;12.10;;;8.90;;
7074;SDS011;3578;51.568;6.932;2022-07-25T04:39:26;11.63;;;9.77;;
7074;SDS011;3578;51.568;6.932;2022-07-25T04:41:53;10.37;;;9.10;;
7074;SDS011;3578;51.568;6.932;2022-07-25T04:44:20;10.27;;;9.27;;
7074;SDS011;3578;51.568;6.932;2022-07-25T04:46:49;10.47;;;9.17;;
7074;SDS011;3578;51.568;6.932;2022-07-25T04:49:16;12.33;;;9.90;;
7074;SDS011;3578;51.568;6.932;2022-07-25T04:51:44;11.90;;;10.20;;
7074;SDS011;3578;51.568;6.932;2022-07-25T04:54:11;9.50;;;8.67;;
7074;SDS011;3578;51.568;6.932;2022-07-25T04:56:38;10.73;;;8.70;;
7074;SDS011;3578;51.568;6.932;2022-07-25T04:59:05;9.53;;;8.70;;
7074;SDS011;3578;51.568;6.932;2022-07-25T05:01:32;12.20;;;9.43;;
7074;SDS011;3578;51.568;6.932;2022-07-25T05:04:00;8.97;;;8.03;;
7074;SDS011;3578;51.568;6.932;2022-07-25T05:06:27;11.70;;;8.90;;
7074;SDS011;3578;51.568;6.932;2022-07-25T05:08:55;10.30;;;8.40;;
7074;SDS011;3578;51.568;6.932;2022-07-25T05:11:22;12.07;;;8.53;;
7074;SDS011;3578;51.568;6.932;2022-07-25T05:13:49;12.27;;;9.47;;
7074;SDS011;3578;51.568;6.932;2022-07-25T05:16:16;9.83;;;8.70;;
7074;SDS011;3578;51.568;6.932;2022-07-25T05:18:43;11.17;;;8.27;;
7074;SDS011;3578;51.568;6.932;2022-07-25T05:21:11;10.90;;;7.80;;
7074;SDS011;3578;51.568;6.932;2022-07-25T05:23:38;8.77;;;8.00;;
7074;SDS011;3578;51.568;6.932;2022-07-25T05:26:05;10.07;;;8.77;;
7074;SDS011;3578;51.568;6.932;2022-07-25T05:28:33;8.87;;;8.07;;
7074;SDS011;3578;51.568;6.932;2022-07-25T05:31:00;9.03;;;8.17;;
7074;SDS011;3578;51.568;6.932;2022-07-25T05:33:27;10.13;;;9.20;;
7074;SDS011;3578;51.568;6.932;2022-07-25T05:35:54;9.40;;;7.53;;
7074;SDS011;3578;51.568;6.932;2022-07-25T05:38:23;9.33;;;8.53;;
7074;SDS011;3578;51.568;6.932;2022-07-25T05:40:50;9.20;;;8.30;;
7074;SDS011;3578;51.568;6.932;2022-07-25T05:43:17;13.90;;;8.03;;
7074;SDS011;3578;51.568;6.932;2022-07-25T05:45:44;9.37;;;7.83;;
7074;SDS011;3578;51.568;6.932;2022-07-25T05:48:12;8.50;;;7.40;;
7074;SDS011;3578;51.568;6.932;2022-07-25T05:50:39;10.00;;;7.63;;
7074;SDS011;3578;51.568;6.932;2022-07-25T05:53:07;7.73;;;7.03;;
7074;SDS011;3578;51.568;6.932;2022-07-25T05:55:35;8.27;;;6.90;;
7074;SDS011;3578;51.568;6.932;2022-07-25T05:58:02;10.10;;;7.20;;
7074;SDS011;3578;51.568;6.932;2022-07-25T06:00:30;8.33;;;7.60;;
7074;SDS011;3578;51.568;6.932;2022-07-25T06:02:57;7.90;;;7.03;;
7074;SDS011;3578;51.568;6.932;2022-07-25T06:05:25;7.57;;;6.77;;
7074;SDS011;3578;51.568;6.932;2022-07-25T06:07:52;11.37;;;7.70;;
7074;SDS011;3578;51.568;6.932;2022-07-25T06:10:19;18.37;;;8.00;;
7074;SDS011;3578;51.568;6.932;2022-07-25T06:12:48;9.00;;;7.83;;
7074;SDS011;3578;51.568;6.932;2022-07-25T06:15:15;7.87;;;7.07;;
7074;SDS011;3578;51.568;6.932;2022-07-25T06:17:42;11.37;;;7.20;;
7074;SDS011;3578;51.568;6.932;2022-07-25T06:20:10;7.03;;;6.43;;
7074;SDS011;3578;51.568;6.932;2022-07-25T06:22:37;8.10;;;7.30;;
7074;SDS011;3578;51.568;6.932;2022-07-25T06:25:05;7.90;;;7.20;;
7074;SDS011;3578;51.568;6.932;2022-07-25T06:27:33;6.20;;;5.70;;
7074;SDS011;3578;51.568;6.932;2022-07-25T06:30:04;6.80;;;6.20;;
7074;SDS011;3578;51.568;6.932;2022-07-25T06:32:33;7.30;;;6.20;;
7074;SDS011;3578;51.568;6.932;2022-07-25T06:35:00;5.90;;;5.40;;
7074;SDS011;3578;51.568;6.932;2022-07-25T06:37:27;6.23;;;5.70;;
7074;SDS011;3578;51.568;6.932;2022-07-25T06:39:54;6.20;;;5.60;;
7074;SDS011;3578;51.568;6.932;2022-07-25T06:42:21;6.47;;;5.87;;
7074;SDS011;3578;51.568;6.932;2022-07-25T06:44:48;6.80;;;5.47;;
7074;SDS011;3578;51.568;6.932;2022-07-25T06:47:17;8.77;;;5.70;;
7074;SDS011;3578;51.568;6.932;2022-07-25T06:49:44;6.13;;;5.40;;
7074;SDS011;3578;51.568;6.932;2022-07-25T06:52:11;6.33;;;5.90;;
7074;SDS011;3578;51.568;6.932;2022-07-25T06:54:38;6.20;;;5.57;;
7074;SDS011;3578;51.568;6.932;2022-07-25T06:57:05;6.37;;;5.77;;
7074;SDS011;3578;51.568;6.932;2022-07-25T06:59:33;5.87;;;5.27;;
7074;SDS011;3578;51.568;6.932;2022-07-25T07:02:00;7.07;;;5.63;;
7074;SDS011;3578;51.568;6.932;2022-07-25T07:04:28;6.10;;;5.13;;
7074;SDS011;3578;51.568;6.932;2022-07-25T07:06:55;6.07;;;5.47;;
7074;SDS011;3578;51.568;6.932;2022-07-25T07:09:22;7.17;;;5.57;;
7074;SDS011;3578;51.568;6.932;2022-07-25T07:11:49;10.43;;;6.07;;
7074;SDS011;3578;51.568;6.932;2022-07-25T07:14:16;5.23;;;4.83;;
7074;SDS011;3578;51.568;6.932;2022-07-25T07:16:43;5.33;;;4.93;;
7074;SDS011;3578;51.568;6.932;2022-07-25T07:19:10;5.57;;;5.00;;
7074;SDS011;3578;51.568;6.932;2022-07-25T07:21:40;6.00;;;5.47;;
7074;SDS011;3578;51.568;6.932;2022-07-25T07:24:07;6.30;;;5.70;;
7074;SDS011;3578;51.568;6.932;2022-07-25T07:26:35;5.80;;;5.23;;
7074;SDS011;3578;51.568;6.932;2022-07-25T07:29:02;6.47;;;5.80;;
7074;SDS011;3578;51.568;6.932;2022-07-25T07:31:29;5.67;;;5.17;;
7074;SDS011;3578;51.568;6.932;2022-07-25T07:33:56;10.13;;;4.60;;
7074;SDS011;3578;51.568;6.932;2022-07-25T07:36:24;6.20;;;4.67;;
7074;SDS011;3578;51.568;6.932;2022-07-25T07:38:52;5.20;;;4.70;;
7074;SDS011;3578;51.568;6.932;2022-07-25T07:41:19;5.63;;;4.80;;
7074;SDS011;3578;51.568;6.932;2022-07-25T07:43:46;7.07;;;5.50;;
7074;SDS011;3578;51.568;6.932;2022-07-25T07:46:13;15.13;;;5.80;;
7074;SDS011;3578;51.568;6.932;2022-07-25T07:48:40;7.40;;;4.90;;
7074;SDS011;3578;51.568;6.932;2022-07-25T07:51:07;6.10;;;5.50;;
7074;SDS011;3578;51.568;6.932;2022-07-25T07:53:35;6.67;;;5.23;;
7074;SDS011;3578;51.568;6.932;2022-07-25T07:56:20;6.53;;;5.27;;
7074;SDS011;3578;51.568;6.932;2022-07-25T07:58:48;5.33;;;4.93;;
7074;SDS011;3578;51.568;6.932;2022-07-25T08:01:15;5.73;;;5.17;;
7074;SDS011;3578;51.568;6.932;2022-07-25T08:03:42;6.77;;;5.20;;
7074;SDS011;3578;51.568;6.932;2022-07-25T08:06:09;5.33;;;4.93;;
7074;SDS011;3578;51.568;6.932;2022-07-25T08:08:36;6.23;;;5.43;;
7074;SDS011;3578;51.568;6.932;2022-07-25T08:11:03;7.60;;;5.90;;
7074;SDS011;3578;51.568;6.932;2022-07-25T08:13:32;6.60;;;6.00;;
7074;SDS011;3578;51.568;6.932;2022-07-25T08:16:00;5.83;;;5.27;;
7074;SDS011;3578;51.568;6.932;2022-07-25T08:18:28;6.47;;;5.20;;
7074;SDS011;3578;51.568;6.932;2022-07-25T08:20:56;7.43;;;5.47;;
7074;SDS011;3578;51.568;6.932;2022-07-25T08:23:26;6.17;;;5.57;;
7074;SDS011;3578;51.568;6.932;2022-07-25T08:25:55;7.23;;;5.63;;
7074;SDS011;3578;51.568;6.932;2022-07-25T08:28:23;8.53;;;5.97;;
7074;SDS011;3578;51.568;6.932;2022-07-25T08:30:51;7.23;;;5.83;;
7074;SDS011;3578;51.568;6.932;2022-07-25T08:33:18;5.43;;;4.93;;
7074;SDS011;3578;51.568;6.932;2022-07-25T08:35:46;8.07;;;5.17;;
7074;SDS011;3578;51.568;6.932;2022-07-25T08:38:16;6.83;;;5.87;;
7074;SDS011;3578;51.568;6.932;2022-07-25T08:40:43;7.10;;;5.57;;
7074;SDS011;3578;51.568;6.932;2022-07-25T08:43:11;7.60;;;5.40;;
7074;SDS011;3578;51.568;6.932;2022-07-25T08:45:42;12.07;;;5.60;;
7074;SDS011;3578;51.568;6.932;2022-07-25T08:48:12;7.03;;;5.30;;
7074;SDS011;3578;51.568;6.932;2022-07-25T08:50:42;6.60;;;5.10;;
7074;SDS011;3578;51.568;6.932;2022-07-25T08:53:11;7.33;;;5.73;;
7074;SDS011;3578;51.568;6.932;2022-07-25T08:55:39;6.87;;;5.97;;
7074;SDS011;3578;51.568;6.932;2022-07-25T08:58:07;7.10;;;5.40;;
7074;SDS011;3578;51.568;6.932;2022-07-25T09:00:37;6.77;;;4.87;;
7074;SDS011;3578;51.568;6.932;2022-07-25T09:03:05;5.57;;;5.07;;
7074;SDS011;3578;51.568;6.932;2022-07-25T09:05:34;7.00;;;5.83;;
7074;SDS011;3578;51.568;6.932;2022-07-25T09:08:06;8.23;;;5.80;;
7074;SDS011;3578;51.568;6.932;2022-07-25T09:10:36;8.13;;;6.57;;
7074;SDS011;3578;51.568;6.932;2022-07-25T09:13:07;5.83;;;5.33;;
7074;SDS011;3578;51.568;6.932;2022-07-25T09:15:39;5.60;;;5.03;;
7074;SDS011;3578;51.568;6.932;2022-07-25T09:18:11;7.30;;;5.83;;
7074;SDS011;3578;51.568;6.932;2022-07-25T09:20:42;6.30;;;5.80;;
7074;SDS011;3578;51.568;6.932;2022-07-25T09:23:10;6.57;;;5.20;;
7074;SDS011;3578;51.568;6.932;2022-07-25T09:25:39;8.93;;;5.77;;
7074;SDS011;3578;51.568;6.932;2022-07-25T09:28:11;6.67;;;5.57;;
7074;SDS011;3578;51.568;6.932;2022-07-25T09:30:51;6.63;;;5.83;;
7074;SDS011;3578;51.568;6.932;2022-07-25T09:33:19;9.50;;;6.10;;
7074;SDS011;3578;51.568;6.932;2022-07-25T09:35:49;7.50;;;6.10;;
7074;SDS011;3578;51.568;6.932;2022-07-25T09:38:17;6.03;;;5.37;;
7074;SDS011;3578;51.568;6.932;2022-07-25T09:40:55;8.70;;;6.30;;
7074;SDS011;3578;51.568;6.932;2022-07-25T09:43:34;6.00;;;5.50;;
7074;SDS011;3578;51.568;6.932;2022-07-25T09:46:02;9.20;;;5.53;;
7074;SDS011;3578;51.568;6.932;2022-07-25T09:48:29;10.97;;;5.97;;
7074;SDS011;3578;51.568;6.932;2022-07-25T09:50:58;6.23;;;5.60;;
7074;SDS011;3578;51.568;6.932;2022-07-25T09:53:25;9.20;;;6.23;;
7074;SDS011;3578;51.568;6.932;2022-07-25T09:55:53;10.83;;;5.83;;
7074;SDS011;3578;51.568;6.932;2022-07-25T09:58:21;7.80;;;6.40;;
7074;SDS011;3578;51.568;6.932;2022-07-25T10:00:48;6.10;;;5.50;;
7074;SDS011;3578;51.568;6.932;2022-07-25T10:03:17;5.77;;;4.83;;
7074;SDS011;3578;51.568;6.932;2022-07-25T10:06:00;5.13;;;4.60;;
7074;SDS011;3578;51.568;6.932;2022-07-25T10:08:36;6.90;;;4.60;;
7074;SDS011;3578;51.568;6.932;2022-07-25T10:11:16;6.40;;;5.80;;
7074;SDS011;3578;51.568;6.932;2022-07-25T10:13:45;5.37;;;4.97;;
7074;SDS011;3578;51.568;6.932;2022-07-25T10:16:16;6.50;;;4.33;;
7074;SDS011;3578;51.568;6.932;2022-07-25T10:18:49;7.07;;;4.40;;
7074;SDS011;3578;51.568;6.932;2022-07-25T10:21:19;5.10;;;4.70;;
7074;SDS011;3578;51.568;6.932;2022-07-25T10:23:56;6.17;;;4.83;;
7074;SDS011;3578;51.568;6.932;2022-07-25T10:26:26;7.27;;;5.17;;
7074;SDS011;3578;51.568;6.932;2022-07-25T10:28:54;6.97;;;3.80;;
7074;SDS011;3578;51.568;6.932;2022-07-25T10:31:24;8.37;;;4.73;;
7074;SDS011;3578;51.568;6.932;2022-07-25T10:34:00;4.60;;;4.13;;
7074;SDS011;3578;51.568;6.932;2022-07-25T10:36:41;6.60;;;4.90;;
7074;SDS011;3578;51.568;6.932;2022-07-25T10:39:10;6.27;;;5.10;;
7074;SDS011;3578;51.568;6.932;2022-07-25T10:41:40;8.93;;;4.23;;
7074;SDS011;3578;51.568;6.932;2022-07-25T10:44:10;4.63;;;3.70;;
7074;SDS011;3578;51.568;6.932;2022-07-25T10:46:39;6.13;;;4.20;;
7074;SDS011;3578;51.568;6.932;2022-07-25T10:49:15;4.50;;;4.10;;
7074;SDS011;3578;51.568;6.932;2022-07-25T10:51:53;9.70;;;4.50;;
7074;SDS011;3578;51.568;6.932;2022-07-25T10:54:22;3.87;;;3.63;;
7074;SDS011;3578;51.568;6.932;2022-07-25T10:56:50;6.90;;;4.20;;
7074;SDS011;3578;51.568;6.932;2022-07-25T10:59:30;8.40;;;4.40;;
7074;SDS011;3578;51.568;6.932;2022-07-25T11:02:00;6.37;;;3.93;;
7074;SDS011;3578;51.568;6.932;2022-07-25T11:04:28;4.50;;;3.50;;
7074;SDS011;3578;51.568;6.932;2022-07-25T11:07:05;4.10;;;3.80;;
7074;SDS011;3578;51.568;6.932;2022-07-25T11:09:34;6.13;;;3.23;;
7074;SDS011;3578;51.568;6.932;2022-07-25T11:12:01;5.23;;;3.47;;
7074;SDS011;3578;51.568;6.932;2022-07-25T11:14:30;3.53;;;3.30;;
7074;SDS011;3578;51.568;6.932;2022-07-25T11:17:10;5.07;;;3.63;;
7074;SDS011;3578;51.568;6.932;2022-07-25T11:19:40;5.73;;;3.73;;
7074;SDS011;3578;51.568;6.932;2022-07-25T11:22:09;3.17;;;2.97;;
7074;SDS011;3578;51.568;6.932;2022-07-25T11:24:37;9.03;;;2.80;;
7074;SDS011;3578;51.568;6.932;2022-07-25T11:27:07;5.23;;;2.97;;
7074;SDS011;3578;51.568;6.932;2022-07-25T11:29:36;3.07;;;2.77;;
7074;SDS011;3578;51.568;6.932;2022-07-25T11:32:05;2.97;;;2.67;;
7074;SDS011;3578;51.568;6.932;2022-07-25T11:34:35;5.00;;;3.20;;
7074;SDS011;3578;51.568;6.932;2022-07-25T11:37:06;3.23;;;3.00;;
7074;SDS011;3578;51.568;6.932;2022-07-25T11:39:37;4.07;;;2.70;;
7074;SDS011;3578;51.568;6.932;2022-07-25T11:42:07;3.40;;;2.73;;
7074;SDS011;3578;51.568;6.932;2022-07-25T11:44:37;3.13;;;2.93;;
7074;SDS011;3578;51.568;6.932;2022-07-25T11:47:07;4.33;;;3.30;;
7074;SDS011;3578;51.568;6.932;2022-07-25T11:49:47;4.07;;;2.83;;
7074;SDS011;3578;51.568;6.932;2022-07-25T11:52:17;3.10;;;2.77;;
7074;SDS011;3578;51.568;6.932;2022-07-25T11:54:51;7.97;;;3.17;;
7074;SDS011;3578;51.568;6.932;2022-07-25T11:57:20;5.43;;;3.03;;
7074;SDS011;3578;51.568;6.932;2022-07-25T11:59:48;3.23;;;2.80;;
7074;SDS011;3578;51.568;6.932;2022-07-25T12:02:20;4.10;;;2.80;;
7074;SDS011;3578;51.568;6.932;2022-07-25T12:04:52;3.90;;;2.07;;
7074;SDS011;3578;51.568;6.932;2022-07-25T12:07:20;5.60;;;2.60;;
7074;SDS011;3578;51.568;6.932;2022-07-25T12:09:59;2.90;;;2.70;;
7074;SDS011;3578;51.568;6.932;2022-07-25T12:12:26;2.83;;;2.53;;
7074;SDS011;3578;51.568;6.932;2022-07-25T12:14:53;5.07;;;2.37;;
7074;SDS011;3578;51.568;6.932;2022-07-25T12:17:20;2.67;;;2.47;;
7074;SDS011;3578;51.568;6.932;2022-07-25T12:19:48;3.03;;;2.83;;
7074;SDS011;3578;51.568;6.932;2022-07-25T12:22:15;3.77;;;2.70;;
7074;SDS011;3578;51.568;6.932;2022-07-25T12:24:42;9.37;;;2.53;;
7074;SDS011;3578;51.568;6.932;2022-07-25T12:27:10;3.30;;;3.00;;
7074;SDS011;3578;51.568;6.932;2022-07-25T12:29:37;2.73;;;2.53;;
7074;SDS011;3578;51.568;6.932;2022-07-25T12:32:04;5.37;;;2.80;;
7074;SDS011;3578;51.568;6.932;2022-07-25T12:34:32;3.50;;;3.07;;
7074;SDS011;3578;51.568;6.932;2022-07-25T12:36:59;6.30;;;2.53;;
7074;SDS011;3578;51.568;6.932;2022-07-25T12:39:26;3.60;;;2.70;;
7074;SDS011;3578;51.568;6.932;2022-07-25T12:41:53;3.20;;;2.57;;
7074;SDS011;3578;51.568;6.932;2022-07-25T12:44:21;4.70;;;2.30;;
7074;SDS011;3578;51.568;6.932;2022-07-25T12:46:48;2.33;;;2.10;;
7074;SDS011;3578;51.568;6.932;2022-07-25T12:49:15;4.10;;;2.50;;
7074;SDS011;3578;51.568;6.932;2022-07-25T12:51:42;5.67;;;3.23;;
7074;SDS011;3578;51.568;6.932;2022-07-25T12:54:10;4.60;;;2.60;;
7074;SDS011;3578;51.568;6.932;2022-07-25T12:56:37;3.37;;;2.13;;
7074;SDS011;3578;51.568;6.932;2022-07-25T12:59:04;2.37;;;2.27;;
7074;SDS011;3578;51.568;6.932;2022-07-25T13:01:32;2.57;;;2.20;;
7074;SDS011;3578;51.568;6.932;2022-07-25T13:03:59;3.90;;;2.43;;
7074;SDS011;3578;51.568;6.932;2022-07-25T13:06:26;6.77;;;2.80;;
7074;SDS011;3578;51.568;6.932;2022-07-25T13:08:54;6.33;;;2.30;;
7074;SDS011;3578;51.568;6.932;2022-07-25T13:11:21;4.83;;;2.30;;
7074;SDS011;3578;51.568;6.932;2022-07-25T13:13:48;4.80;;;1.93;;
7074;SDS011;3578;51.568;6.932;2022-07-25T13:16:15;2.03;;;1.90;;
7074;SDS011;3578;51.568;6.932;2022-07-25T13:18:43;3.67;;;1.70;;
7074;SDS011;3578;51.568;6.932;2022-07-25T13:21:10;2.20;;;2.10;;
7074;SDS011;3578;51.568;6.932;2022-07-25T13:23:37;1.77;;;1.67;;
7074;SDS011;3578;51.568;6.932;2022-07-25T13:26:05;6.23;;;1.97;;
7074;SDS011;3578;51.568;6.932;2022-07-25T13:28:33;6.53;;;2.17;;
7074;SDS011;3578;51.568;6.932;2022-07-25T13:31:00;2.70;;;2.50;;
7074;SDS011;3578;51.568;6.932;2022-07-25T13:33:29;3.43;;;2.10;;
7074;SDS011;3578;51.568;6.932;2022-07-25T13:35:58;5.60;;;2.30;;
7074;SDS011;3578;51.568;6.932;2022-07-25T13:38:25;1.90;;;1.80;;
7074;SDS011;3578;51.568;6.932;2022-07-25T13:40:52;3.00;;;2.10;;
7074;SDS011;3578;51.568;6.932;2022-07-25T13:43:19;2.37;;;2.23;;
7074;SDS011;3578;51.568;6.932;2022-07-25T13:45:46;2.87;;;2.20;;
7074;SDS011;3578;51.568;6.932;2022-07-25T13:48:13;7.67;;;2.13;;
7074;SDS011;3578;51.568;6.932;2022-07-25T13:50:40;4.17;;;2.30;;
7074;SDS011;3578;51.568;6.932;2022-07-25T13:53:08;3.33;;;2.37;;
7074;SDS011;3578;51.568;6.932;2022-07-25T13:55:35;2.83;;;2.00;;
7074;SDS011;3578;51.568;6.932;2022-07-25T13:58:03;2.17;;;2.00;;
7074;SDS011;3578;51.568;6.932;2022-07-25T14:00:30;5.73;;;1.83;;
7074;SDS011;3578;51.568;6.932;2022-07-25T14:02:57;2.60;;;2.20;;
7074;SDS011;3578;51.568;6.932;2022-07-25T14:05:24;3.63;;;2.23;;
7074;SDS011;3578;51.568;6.932;2022-07-25T14:07:52;2.30;;;2.03;;
7074;SDS011;3578;51.568;6.932;2022-07-25T14:10:20;4.00;;;2.60;;
7074;SDS011;3578;51.568;6.932;2022-07-25T14:12:47;3.67;;;2.60;;
7074;SDS011;3578;51.568;6.932;2022-07-25T14:15:14;5.80;;;2.20;;
7074;SDS011;3578;51.568;6.932;2022-07-25T14:17:41;2.50;;;2.40;;
7074;SDS011;3578;51.568;6.932;2022-07-25T14:20:09;4.07;;;3.00;;
7074;SDS011;3578;51.568;6.932;2022-07-25T14:22:37;2.67;;;2.47;;
7074;SDS011;3578;51.568;6.932;2022-07-25T14:25:06;10.73;;;3.70;;
7074;SDS011;3578;51.568;6.932;2022-07-25T14:27:36;3.50;;;2.67;;
7074;SDS011;3578;51.568;6.932;2022-07-25T14:30:04;7.77;;;2.60;;
7074;SDS011;3578;51.568;6.932;2022-07-25T14:32:34;3.37;;;2.57;;
7074;SDS011;3578;51.568;6.932;2022-07-25T14:35:01;3.37;;;2.07;;
7074;SDS011;3578;51.568;6.932;2022-07-25T14:37:30;2.77;;;2.57;;
7074;SDS011;3578;51.568;6.932;2022-07-25T14:39:58;3.87;;;2.73;;
7074;SDS011;3578;51.568;6.932;2022-07-25T14:42:26;5.63;;;2.90;;
7074;SDS011;3578;51.568;6.932;2022-07-25T14:44:54;4.60;;;3.60;;
7074;SDS011;3578;51.568;6.932;2022-07-25T14:47:21;6.93;;;3.10;;
7074;SDS011;3578;51.568;6.932;2022-07-25T14:49:48;10.07;;;3.43;;
7074;SDS011;3578;51.568;6.932;2022-07-25T14:52:15;5.63;;;3.50;;
7074;SDS011;3578;51.568;6.932;2022-07-25T14:54:42;4.60;;;3.57;;
7074;SDS011;3578;51.568;6.932;2022-07-25T14:57:10;6.90;;;3.23;;
7074;SDS011;3578;51.568;6.932;2022-07-25T14:59:37;4.70;;;3.53;;
7074;SDS011;3578;51.568;6.932;2022-07-25T15:02:06;7.87;;;3.77;;
7074;SDS011;3578;51.568;6.932;2022-07-25T15:04:35;5.23;;;3.50;;
7074;SDS011;3578;51.568;6.932;2022-07-25T15:07:02;3.67;;;3.37;;
7074;SDS011;3578;51.568;6.932;2022-07-25T15:09:29;6.37;;;3.80;;
7074;SDS011;3578;51.568;6.932;2022-07-25T15:11:56;4.37;;;3.30;;
7074;SDS011;3578;51.568;6.932;2022-07-25T15:14:23;4.40;;;3.50;;